Time;durP1;ratioP1;P1;durP2;ratioP2;P2;SDS_P1;SDS_P2;PMS_P1;PMS_P2;Temp;Humidity;BMP_temperature;BMP_pressure;BME280_temperature;BME280_humidity;BME280_pressure;Samples;Min_cycle;Max_cycle;Signal;HPM_P1;HPM_P2
2023/10/17 00:00:38;;;;;;;8.10;6.82;;;;;20.50;100934.00;;;;2070667;28;20203;-68
2023/10/17 00:01:44;;;;;;;7.55;6.85;;;;;20.50;100934.00;;;;2067138;28;20620;-68
2023/10/17 00:02:44;;;;;;;7.50;6.72;;;;;20.50;100939.00;;;;2047876;28;20204;-68
2023/10/17 00:03:45;;;;;;;7.53;6.70;;;;;20.50;100938.00;;;;2050041;28;20223;-68
2023/10/17 00:04:45;;;;;;;7.00;6.07;;;;;20.50;100939.00;;;;2070790;28;20228;-68
2023/10/17 00:05:46;;;;;;;7.50;6.40;;;;;20.40;100939.00;;;;2066974;28;20453;-68
2023/10/17 00:06:46;;;;;;;6.87;6.17;;;;;20.40;100935.00;;;;2067340;28;20198;-68
2023/10/17 00:07:46;;;;;;;7.50;6.27;;;;;20.40;100938.00;;;;2063903;28;20210;-68
2023/10/17 00:08:50;;;;;;;7.40;6.60;;;;;20.40;100941.00;;;;2058148;28;20207;-68
2023/10/17 00:09:50;;;;;;;7.00;6.40;;;;;20.40;100936.00;;;;2071787;28;20275;-68
2023/10/17 00:10:51;;;;;;;8.00;6.80;;;;;20.40;100942.00;;;;2066194;28;20223;-68
2023/10/17 00:12:54;;;;;;;6.55;5.63;;;;;20.40;100943.00;;;;2055347;28;21396;-69
2023/10/17 00:14:01;;;;;;;7.70;5.70;;;;;20.40;100948.00;;;;2067868;28;20646;-68
2023/10/17 00:15:13;;;;;;;6.55;5.95;;;;;20.40;100940.00;;;;2071196;28;20214;-68
2023/10/17 00:16:17;;;;;;;8.63;6.35;;;;;20.40;100944.00;;;;2067919;28;20210;-68
2023/10/17 00:17:17;;;;;;;7.07;6.35;;;;;20.40;100949.00;;;;2064628;28;20580;-68
2023/10/17 00:18:20;;;;;;;6.03;5.43;;;;;20.40;100944.00;;;;2054350;28;20223;-68
2023/10/17 00:19:31;;;;;;;7.40;6.07;;;;;20.40;100950.00;;;;2064724;28;20228;-68
2023/10/17 00:20:37;;;;;;;7.00;6.30;;;;;20.40;100912.00;;;;2063162;28;21655;-68
2023/10/17 00:21:39;;;;;;;5.90;5.30;;;;;20.40;100944.00;;;;2066577;28;20207;-68
2023/10/17 00:22:42;;;;;;;7.22;5.70;;;;;20.40;100948.00;;;;2070689;28;20199;-68
2023/10/17 00:23:42;;;;;;;9.75;6.18;;;;;20.40;100937.00;;;;2058851;28;20290;-68
2023/10/17 00:24:46;;;;;;;6.37;5.77;;;;;20.40;100939.00;;;;2066607;28;20321;-68
2023/10/17 00:25:49;;;;;;;6.78;5.60;;;;;20.30;100930.00;;;;2069855;28;20379;-68
2023/10/17 00:26:49;;;;;;;8.60;5.88;;;;;20.30;100937.00;;;;2059902;28;20274;-68
2023/10/17 00:27:50;;;;;;;5.90;5.30;;;;;20.40;100933.00;;;;2041754;28;20367;-68
2023/10/17 00:28:52;;;;;;;5.85;5.25;;;;;20.40;100934.00;;;;2049406;28;20295;-68
2023/10/17 00:29:52;;;;;;;6.80;6.10;;;;;20.20;100902.00;;;;2056388;28;20219;-68
2023/10/17 00:30:54;;;;;;;5.90;5.30;;;;;20.30;100928.00;;;;2065690;28;20213;-68
2023/10/17 00:31:55;;;;;;;5.70;5.10;;;;;20.30;100927.00;;;;2067203;28;20230;-68
2023/10/17 00:32:56;;;;;;;5.85;5.20;;;;;20.30;100918.00;;;;2059475;28;20238;-68
2023/10/17 00:33:59;;;;;;;8.20;5.40;;;;;20.30;100924.00;;;;2071739;28;20269;-68
2023/10/17 00:35:06;;;;;;;5.93;5.20;;;;;20.30;100923.00;;;;2065502;28;20223;-68
2023/10/17 00:36:14;;;;;;;5.65;4.95;;;;;20.30;100926.00;;;;2064902;28;20219;-68
2023/10/17 00:37:14;;;;;;;5.47;4.90;;;;;20.30;100861.00;;;;2070730;28;20232;-68
2023/10/17 00:38:15;;;;;;;5.13;4.63;;;;;20.30;100924.00;;;;2047931;28;20219;-68
2023/10/17 00:39:22;;;;;;;6.45;5.80;;;;;20.30;100926.00;;;;2071940;28;20221;-68
2023/10/17 00:40:37;;;;;;;5.50;5.00;;;;;20.30;100889.00;;;;2070403;28;20219;-68
2023/10/17 00:41:50;;;;;;;6.35;5.30;;;;;20.30;100918.00;;;;2071095;28;20210;-68
2023/10/17 00:42:51;;;;;;;6.10;5.50;;;;;20.30;100921.00;;;;2060229;28;20732;-68
2023/10/17 00:43:53;;;;;;;6.93;5.00;;;;;20.30;100918.00;;;;2070731;28;20234;-68
2023/10/17 00:44:53;;;;;;;6.28;5.10;;;;;20.30;100917.00;;;;2071535;28;20221;-68
2023/10/17 00:45:54;;;;;;;4.93;4.50;;;;;20.30;100909.00;;;;2075016;28;20213;-68
2023/10/17 00:46:54;;;;;;;8.37;5.30;;;;;20.30;100914.00;;;;2072356;28;20272;-68
2023/10/17 00:47:55;;;;;;;5.90;5.30;;;;;20.30;100912.00;;;;2058411;28;20623;-68
2023/10/17 00:48:56;;;;;;;5.87;4.77;;;;;20.30;100908.00;;;;2069909;28;20883;-68
2023/10/17 00:49:59;;;;;;;4.95;4.45;;;;;20.30;100906.00;;;;2067762;28;20598;-68
2023/10/17 00:51:09;;;;;;;5.63;5.05;;;;;20.30;100922.00;;;;2064018;28;20218;-68
2023/10/17 00:52:24;;;;;;;5.20;4.70;;;;;20.30;100873.00;;;;2073528;28;20718;-68
2023/10/17 00:53:24;;;;;;;5.40;4.70;;;;;20.30;100919.00;;;;2055961;28;20227;-68
2023/10/17 00:54:25;;;;;;;5.60;5.00;;;;;20.30;100859.00;;;;2071681;28;20276;-68
2023/10/17 00:55:26;;;;;;;5.75;5.15;;;;;20.30;100921.00;;;;2067595;28;20690;-68
2023/10/17 00:56:27;;;;;;;5.33;4.83;;;;;20.30;100911.00;;;;2056341;28;20223;-68
2023/10/17 00:57:27;;;;;;;5.20;4.77;;;;;20.20;100904.00;;;;2071175;28;20472;-68
2023/10/17 00:58:27;;;;;;;5.00;4.50;;;;;20.30;100906.00;;;;2054832;28;20958;-68
2023/10/17 00:59:29;;;;;;;4.90;3.97;;;;;20.20;100912.00;;;;2069092;28;20221;-68
2023/10/17 01:00:36;;;;;;;5.20;4.70;;;;;20.20;100906.00;;;;2072248;28;20222;-68
2023/10/17 01:01:36;;;;;;;5.90;4.70;;;;;20.20;100902.00;;;;2059593;28;20303;-68
2023/10/17 01:02:44;;;;;;;5.37;4.87;;;;;20.20;100898.00;;;;2053676;28;20223;-68
2023/10/17 01:03:45;;;;;;;4.70;4.20;;;;;20.20;100899.00;;;;2043985;28;20211;-68
2023/10/17 01:04:45;;;;;;;4.70;4.30;;;;;20.20;100901.00;;;;2068176;28;20195;-68
2023/10/17 01:06:13;;;;;;;4.97;4.50;;;;;20.20;100895.00;;;;2068274;28;20198;-68
2023/10/17 01:07:25;;;;;;;5.57;4.80;;;;;20.20;100902.00;;;;2072236;28;20289;-68
2023/10/17 01:08:39;;;;;;;4.85;4.22;;;;;20.20;100909.00;;;;2062908;28;20226;-68
2023/10/17 01:09:39;;;;;;;4.90;4.40;;;;;20.20;100903.00;;;;2063652;28;20281;-68
2023/10/17 01:10:41;;;;;;;4.93;4.43;;;;;20.20;100857.00;;;;2063991;28;20706;-68
2023/10/17 01:11:41;;;;;;;6.35;5.03;;;;;20.20;100910.00;;;;2071543;28;20210;-68
2023/10/17 01:13:03;;;;;;;5.13;4.30;;;;;20.20;100913.00;;;;2060291;28;20220;-68
2023/10/17 01:14:04;;;;;;;6.63;4.70;;;;;20.20;100909.00;;;;2065572;28;20222;-68
2023/10/17 01:15:05;;;;;;;4.50;4.10;;;;;20.20;100880.00;;;;2072869;28;20732;-68
2023/10/17 01:16:12;;;;;;;5.47;4.30;;;;;20.20;100907.00;;;;2069620;28;21032;-68
2023/10/17 01:17:20;;;;;;;5.30;4.30;;;;;20.20;100914.00;;;;2064721;28;20210;-68
2023/10/17 01:18:21;;;;;;;4.97;3.92;;;;;20.20;100907.00;;;;2063671;28;20253;-68
2023/10/17 01:19:21;;;;;;;4.53;4.13;;;;;20.20;100910.00;;;;2067569;28;20237;-68
2023/10/17 01:20:22;;;;;;;5.00;4.50;;;;;20.20;100907.00;;;;2071290;28;20218;-68
2023/10/17 01:21:22;;;;;;;5.70;5.10;;;;;20.20;100909.00;;;;2072313;28;20695;-68
2023/10/17 01:22:23;;;;;;;5.37;4.27;;;;;20.20;100914.00;;;;2070725;28;20587;-68
2023/10/17 01:23:23;;;;;;;5.10;4.60;;;;;20.20;100909.00;;;;2058904;28;20222;-68
2023/10/17 01:24:25;;;;;;;6.47;4.57;;;;;20.20;100906.00;;;;2071114;28;20226;-68
2023/10/17 01:25:29;;;;;;;4.45;4.05;;;;;20.20;100901.00;;;;2066321;28;20223;-68
2023/10/17 01:26:30;;;;;;;5.10;4.53;;;;;20.20;100901.00;;;;2072581;28;20222;-68
2023/10/17 01:27:31;;;;;;;4.50;4.10;;;;;20.20;100901.00;;;;2068306;28;20237;-68
2023/10/17 01:28:32;;;;;;;4.75;4.32;;;;;20.20;100902.00;;;;2060977;28;20226;-68
2023/10/17 01:29:32;;;;;;;5.13;4.63;;;;;20.20;100906.00;;;;2071879;28;20253;-68
2023/10/17 01:30:33;;;;;;;5.00;4.50;;;;;20.20;100903.00;;;;2071453;28;20733;-68
2023/10/17 01:31:38;;;;;;;5.10;4.37;;;;;20.20;100902.00;;;;2072365;28;20224;-68
2023/10/17 01:32:39;;;;;;;4.40;4.00;;;;;20.20;100864.00;;;;2070304;28;20215;-68
2023/10/17 01:33:39;;;;;;;5.47;4.80;;;;;20.20;100915.00;;;;2061530;28;20265;-68
2023/10/17 01:34:39;;;;;;;4.90;4.37;;;;;20.20;100907.00;;;;2071500;28;20256;-68
2023/10/17 01:35:44;;;;;;;5.50;4.40;;;;;20.20;100909.00;;;;2071185;28;20210;-68
2023/10/17 01:36:44;;;;;;;5.53;4.30;;;;;20.20;100908.00;;;;2071597;28;20214;-68
2023/10/17 01:37:48;;;;;;;4.90;4.10;;;;;20.10;100912.00;;;;2071935;28;20225;-68
2023/10/17 01:38:51;;;;;;;5.55;4.72;;;;;20.10;100904.00;;;;2067822;28;20198;-68
2023/10/17 01:39:51;;;;;;;4.30;3.90;;;;;20.10;100904.00;;;;2073558;28;20575;-68
2023/10/17 01:40:53;;;;;;;4.47;4.07;;;;;20.10;100901.00;;;;2068517;28;20233;-68
2023/10/17 01:41:54;;;;;;;4.75;4.35;;;;;20.10;100902.00;;;;2067677;28;20227;-68
2023/10/17 01:42:57;;;;;;;5.07;4.53;;;;;20.20;100899.00;;;;2056426;28;20225;-68
2023/10/17 01:43:57;;;;;;;5.28;4.60;;;;;20.10;100893.00;;;;2064378;28;20269;-68
2023/10/17 01:44:58;;;;;;;5.00;4.60;;;;;20.10;100867.00;;;;2070348;28;20218;-68
2023/10/17 01:45:58;;;;;;;5.10;4.60;;;;;20.10;100893.00;;;;2074002;28;20213;-68
2023/10/17 01:46:59;;;;;;;7.20;5.13;;;;;20.10;100893.00;;;;2070102;28;20453;-68
2023/10/17 01:48:00;;;;;;;4.90;4.43;;;;;20.10;100892.00;;;;2059282;28;20229;-68
2023/10/17 01:49:09;;;;;;;5.35;4.85;;;;;20.10;100895.00;;;;2070377;28;20250;-68
2023/10/17 01:50:10;;;;;;;5.10;4.50;;;;;20.10;100892.00;;;;2065590;28;20219;-68
2023/10/17 01:51:12;;;;;;;5.93;4.45;;;;;20.10;100899.00;;;;2071055;28;20658;-68
2023/10/17 01:52:13;;;;;;;5.28;4.50;;;;;20.10;100890.00;;;;2075924;28;20217;-68
2023/10/17 01:53:13;;;;;;;5.90;4.10;;;;;20.10;100892.00;;;;2055256;28;20664;-68
2023/10/17 01:54:17;;;;;;;5.13;4.73;;;;;20.10;100892.00;;;;2071985;28;21042;-68
2023/10/17 01:55:17;;;;;;;5.00;4.50;;;;;20.10;100895.00;;;;2066125;28;20685;-68
2023/10/17 01:56:22;;;;;;;4.93;4.33;;;;;20.10;100891.00;;;;2073680;28;20215;-68
2023/10/17 01:57:24;;;;;;;4.95;4.50;;;;;20.10;100886.00;;;;2069282;28;20692;-68
2023/10/17 01:58:24;;;;;;;4.72;4.22;;;;;20.10;100887.00;;;;2047588;28;20231;-68
2023/10/17 01:59:27;;;;;;;4.57;4.17;;;;;20.10;100885.00;;;;2069473;28;20666;-68
2023/10/17 02:01:36;;;;;;;5.45;4.88;;;;;20.10;100872.00;;;;2068701;28;20229;-68
2023/10/17 02:02:37;;;;;;;4.20;3.80;;;;;20.10;100874.00;;;;2072412;28;20218;-68
2023/10/17 02:03:37;;;;;;;5.00;4.40;;;;;20.10;100874.00;;;;2061949;28;20255;-68
2023/10/17 02:04:38;;;;;;;6.10;4.13;;;;;20.10;100876.00;;;;2069406;28;20464;-68
2023/10/17 02:05:38;;;;;;;4.97;4.47;;;;;20.10;100823.00;;;;2064494;28;20287;-68
2023/10/17 02:06:47;;;;;;;5.10;4.37;;;;;20.00;100839.00;;;;2067929;28;20707;-68
2023/10/17 02:07:48;;;;;;;5.53;4.20;;;;;20.00;100875.00;;;;2058432;28;20207;-68
2023/10/17 02:08:48;;;;;;;4.73;4.17;;;;;20.00;100878.00;;;;2065987;28;20238;-68
2023/10/17 02:09:54;;;;;;;5.50;4.57;;;;;20.00;100867.00;;;;2069150;28;20207;-68
2023/10/17 02:10:56;;;;;;;4.95;4.43;;;;;20.10;100844.00;;;;2069933;28;20226;-68
2023/10/17 02:12:00;;;;;;;4.68;4.28;;;;;20.00;100846.00;;;;2069686;28;20272;-68
2023/10/17 02:13:00;;;;;;;4.60;4.20;;;;;20.10;100880.00;;;;2060178;28;20591;-68
2023/10/17 02:14:01;;;;;;;4.67;4.10;;;;;20.10;100881.00;;;;2068850;28;20236;-68
2023/10/17 02:15:05;;;;;;;4.60;4.20;;;;;20.00;100885.00;;;;2069123;28;20598;-68
2023/10/17 02:16:06;;;;;;;4.40;4.10;;;;;20.00;100884.00;;;;2070916;28;20213;-68
2023/10/17 02:17:09;;;;;;;5.57;4.33;;;;;20.00;100877.00;;;;2071781;28;20726;-68
2023/10/17 02:18:12;;;;;;;5.57;4.65;;;;;20.00;100886.00;;;;2061826;28;20618;-68
2023/10/17 02:19:13;;;;;;;4.90;4.25;;;;;20.00;100885.00;;;;2072139;28;20230;-68
2023/10/17 02:21:28;;;;;;;5.00;4.50;;;;;20.10;100889.00;;;;2078989;28;20217;-68
2023/10/17 02:22:31;;;;;;;5.70;4.87;;;;;20.00;100883.00;;;;2069003;28;20584;-68
2023/10/17 02:23:39;;;;;;;5.75;4.10;;;;;20.00;100885.00;;;;2066401;28;20218;-68
2023/10/17 02:24:40;;;;;;;5.00;4.50;;;;;20.00;100890.00;;;;2064140;28;20215;-68
2023/10/17 02:25:41;;;;;;;4.67;4.27;;;;;20.00;100888.00;;;;2065350;28;20549;-68
2023/10/17 02:27:00;;;;;;;4.88;4.47;;;;;20.00;100883.00;;;;2063912;28;20581;-68
2023/10/17 02:28:01;;;;;;;4.70;3.97;;;;;20.00;100889.00;;;;2059014;28;20248;-68
2023/10/17 02:29:05;;;;;;;5.00;4.27;;;;;20.00;100834.00;;;;2071910;28;20261;-68
2023/10/17 02:30:10;;;;;;;4.82;4.32;;;;;20.00;100885.00;;;;2070616;28;20229;-68
2023/10/17 02:31:12;;;;;;;6.32;4.22;;;;;20.00;100876.00;;;;2071423;28;20214;-68
2023/10/17 02:32:13;;;;;;;5.07;3.80;;;;;20.00;100826.00;;;;2067240;28;20215;-68
2023/10/17 02:33:20;;;;;;;6.30;4.67;;;;;20.00;100875.00;;;;2061516;28;20327;-68
2023/10/17 02:34:29;;;;;;;4.63;4.22;;;;;20.00;100875.00;;;;2063166;28;20235;-68
2023/10/17 02:35:39;;;;;;;4.50;4.10;;;;;20.00;100883.00;;;;2058465;28;20215;-68
2023/10/17 02:36:40;;;;;;;5.43;4.07;;;;;20.00;100885.00;;;;2066177;28;20632;-68
2023/10/17 02:37:47;;;;;;;4.53;3.83;;;;;20.00;100884.00;;;;2067519;28;20242;-68
2023/10/17 02:38:47;;;;;;;4.57;4.10;;;;;20.00;100866.00;;;;2058519;28;20234;-68
2023/10/17 02:39:47;;;;;;;5.07;3.90;;;;;20.00;100877.00;;;;2065278;28;20278;-68
2023/10/17 02:40:54;;;;;;;4.90;4.37;;;;;20.00;100876.00;;;;2062557;28;20223;-68
2023/10/17 02:42:07;;;;;;;4.40;3.95;;;;;20.00;100878.00;;;;2071203;28;20220;-68
2023/10/17 02:43:12;;;;;;;5.60;4.32;;;;;20.00;100871.00;;;;2062766;28;20223;-68
2023/10/17 02:44:18;;;;;;;4.53;4.13;;;;;20.00;100872.00;;;;2064256;28;20591;-68
2023/10/17 02:45:24;;;;;;;4.60;4.10;;;;;20.00;100878.00;;;;2068847;28;20226;-68
2023/10/17 02:46:28;;;;;;;4.38;3.92;;;;;20.00;100883.00;;;;2070941;28;20225;-68
2023/10/17 02:47:28;;;;;;;4.10;3.70;;;;;20.00;100881.00;;;;2063715;28;20806;-68
2023/10/17 02:48:29;;;;;;;4.97;4.00;;;;;20.00;100875.00;;;;2057555;28;20272;-68
2023/10/17 02:49:36;;;;;;;4.93;4.43;;;;;20.00;100859.00;;;;2069354;28;20218;-68
2023/10/17 02:51:43;;;;;;;3.67;3.38;;;;;20.00;100877.00;;;;2059017;28;20216;-68
2023/10/17 02:52:47;;;;;;;4.45;4.05;;;;;20.00;100874.00;;;;2066130;28;20206;-68
2023/10/17 02:53:53;;;;;;;4.07;3.75;;;;;20.00;100870.00;;;;2059934;28;20628;-68
2023/10/17 02:54:56;;;;;;;4.82;4.43;;;;;20.00;100872.00;;;;2072441;28;20215;-68
2023/10/17 02:56:18;;;;;;;4.68;4.25;;;;;20.00;100871.00;;;;2070922;28;20218;-68
2023/10/17 02:57:18;;;;;;;4.68;3.78;;;;;20.00;100869.00;;;;2072129;28;20217;-68
2023/10/17 02:58:18;;;;;;;4.70;4.30;;;;;19.90;100869.00;;;;2055544;28;20257;-68
2023/10/17 02:59:21;;;;;;;4.60;4.20;;;;;19.90;100865.00;;;;2076102;28;20209;-68
2023/10/17 03:00:23;;;;;;;7.18;4.20;;;;;20.00;100866.00;;;;2055879;28;21161;-68
2023/10/17 03:01:23;;;;;;;4.88;4.45;;;;;20.00;100866.00;;;;2062038;28;20602;-68
2023/10/17 03:02:36;;;;;;;4.93;4.47;;;;;19.90;100867.00;;;;2063186;28;20225;-68
2023/10/17 03:03:39;;;;;;;4.55;4.15;;;;;19.90;100862.00;;;;2054645;28;20268;-68
2023/10/17 03:04:43;;;;;;;4.93;4.25;;;;;19.90;100864.00;;;;2069055;28;20215;-68
2023/10/17 03:05:44;;;;;;;4.88;4.43;;;;;19.90;100863.00;;;;2067229;28;20252;-68
2023/10/17 03:06:44;;;;;;;4.90;4.50;;;;;19.90;100856.00;;;;2067098;28;20203;-68
2023/10/17 03:07:49;;;;;;;5.70;4.60;;;;;19.90;100855.00;;;;2068506;28;20213;-68
2023/10/17 03:08:51;;;;;;;5.20;4.70;;;;;19.90;100853.00;;;;2066664;28;20261;-68
2023/10/17 03:09:51;;;;;;;5.75;5.25;;;;;19.90;100856.00;;;;2074712;28;20767;-68
2023/10/17 03:10:57;;;;;;;4.80;4.30;;;;;19.90;100855.00;;;;2066681;28;20215;-68
2023/10/17 03:13:05;;;;;;;5.07;4.10;;;;;19.90;100854.00;;;;2054935;28;20206;-68
2023/10/17 03:14:12;;;;;;;4.40;4.00;;;;;19.90;100851.00;;;;2080098;28;20443;-68
2023/10/17 03:15:18;;;;;;;4.65;4.25;;;;;19.90;100860.00;;;;2067510;28;20789;-68
2023/10/17 03:16:27;;;;;;;4.50;4.10;;;;;19.90;100861.00;;;;2063956;28;20211;-68
2023/10/17 03:17:28;;;;;;;5.30;4.80;;;;;19.90;100867.00;;;;2064403;28;20210;-68
2023/10/17 03:18:29;;;;;;;5.10;4.60;;;;;19.90;100856.00;;;;2053318;28;20210;-68
2023/10/17 03:19:29;;;;;;;4.50;4.10;;;;;19.90;100859.00;;;;2064087;28;20237;-68
2023/10/17 03:20:41;;;;;;;5.53;4.87;;;;;19.90;100851.00;;;;2071378;28;20218;-68
2023/10/17 03:21:43;;;;;;;5.35;4.80;;;;;19.90;100849.00;;;;2071635;28;20679;-68
2023/10/17 03:22:44;;;;;;;4.32;3.92;;;;;19.90;100786.00;;;;2067770;28;20210;-68
2023/10/17 03:23:48;;;;;;;5.03;4.53;;;;;19.90;100847.00;;;;2056482;28;20272;-68
2023/10/17 03:24:51;;;;;;;4.60;4.20;;;;;19.90;100850.00;;;;2070248;28;20203;-68
2023/10/17 03:25:51;;;;;;;4.88;4.47;;;;;19.90;100844.00;;;;2070395;28;20206;-68
2023/10/17 03:26:55;;;;;;;5.20;4.70;;;;;19.90;100835.00;;;;2070422;28;20222;-68
2023/10/17 03:27:56;;;;;;;6.00;4.65;;;;;19.90;100848.00;;;;2058875;28;20694;-68
2023/10/17 03:28:57;;;;;;;4.50;4.10;;;;;19.90;100855.00;;;;2067054;28;20293;-68
2023/10/17 03:30:05;;;;;;;4.47;4.07;;;;;19.90;100850.00;;;;2064115;28;20214;-68
2023/10/17 03:31:11;;;;;;;7.60;4.97;;;;;19.90;100845.00;;;;2068470;28;20217;-68
2023/10/17 03:32:12;;;;;;;5.00;4.60;;;;;19.90;100847.00;;;;2067987;28;20246;-68
2023/10/17 03:33:25;;;;;;;4.38;3.97;;;;;19.90;100784.00;;;;2062071;28;20229;-68
2023/10/17 03:34:34;;;;;;;4.68;4.28;;;;;19.90;100845.00;;;;2065256;28;20219;-68
2023/10/17 03:35:46;;;;;;;4.40;4.00;;;;;19.90;100848.00;;;;2067904;28;20207;-68
2023/10/17 03:36:49;;;;;;;4.47;4.07;;;;;19.90;100850.00;;;;2069619;28;20210;-68
2023/10/17 03:37:49;;;;;;;5.00;4.53;;;;;19.90;100851.00;;;;2060881;28;20194;-68
2023/10/17 03:38:52;;;;;;;4.30;3.90;;;;;19.90;100844.00;;;;2066637;28;20353;-68
2023/10/17 03:41:24;;;;;;;4.18;3.78;;;;;19.90;100848.00;;;;2065628;28;20229;-68
2023/10/17 03:43:45;;;;;;;5.72;4.00;;;;;19.90;100844.00;;;;2059510;28;20202;-68
2023/10/17 03:44:46;;;;;;;4.93;4.30;;;;;19.80;100851.00;;;;2067530;28;20298;-68
2023/10/17 03:45:53;;;;;;;3.90;3.60;;;;;19.80;100852.00;;;;2064665;28;20584;-68
2023/10/17 03:46:53;;;;;;;4.13;3.70;;;;;19.80;100851.00;;;;2067431;28;20200;-68
2023/10/17 03:47:54;;;;;;;4.40;4.00;;;;;19.80;100808.00;;;;2058313;28;20201;-68
2023/10/17 03:48:57;;;;;;;4.93;4.50;;;;;19.90;100853.00;;;;2070950;28;20206;-68
2023/10/17 03:49:57;;;;;;;4.65;4.15;;;;;19.80;100853.00;;;;2071657;28;20351;-68
2023/10/17 03:52:07;;;;;;;4.00;3.70;;;;;19.80;100855.00;;;;2064727;28;20268;-68
2023/10/17 03:53:14;;;;;;;4.37;3.90;;;;;19.80;100844.00;;;;2055153;28;20686;-68
2023/10/17 03:54:18;;;;;;;4.40;4.00;;;;;19.80;100853.00;;;;2070613;28;20226;-68
2023/10/17 03:55:21;;;;;;;4.43;4.03;;;;;19.80;100849.00;;;;2069378;28;20214;-68
2023/10/17 03:56:24;;;;;;;4.65;4.13;;;;;19.80;100860.00;;;;2067392;28;20607;-68
2023/10/17 03:57:27;;;;;;;4.30;3.90;;;;;19.80;100852.00;;;;2070844;28;20249;-68
2023/10/17 03:59:38;;;;;;;4.30;3.90;;;;;19.80;100852.00;;;;2074440;28;20277;-68
2023/10/17 04:00:45;;;;;;;5.97;4.32;;;;;19.80;100862.00;;;;2064375;28;20202;-68
2023/10/17 04:01:48;;;;;;;4.28;3.85;;;;;19.80;100860.00;;;;2072741;28;20218;-68
2023/10/17 04:02:49;;;;;;;3.90;3.60;;;;;19.80;100856.00;;;;2062678;28;20258;-68
2023/10/17 04:03:56;;;;;;;3.90;3.60;;;;;19.80;100855.00;;;;2067301;28;20245;-68
2023/10/17 04:04:56;;;;;;;4.20;3.80;;;;;19.80;100862.00;;;;2069394;28;20221;-68
2023/10/17 04:07:07;;;;;;;5.78;4.28;;;;;19.80;100866.00;;;;2071342;28;20214;-68
2023/10/17 04:08:09;;;;;;;4.87;3.90;;;;;19.80;100860.00;;;;2061348;28;20234;-68
2023/10/17 04:10:46;;;;;;;4.22;3.83;;;;;19.80;100858.00;;;;2073479;28;20231;-68
2023/10/17 04:11:49;;;;;;;4.80;4.30;;;;;19.80;100863.00;;;;2064563;28;20308;-68
2023/10/17 04:12:58;;;;;;;3.70;3.40;;;;;19.80;100870.00;;;;2056713;28;20211;-68
2023/10/17 04:14:01;;;;;;;4.50;3.65;;;;;19.80;100874.00;;;;2064401;28;20309;-68
2023/10/17 04:15:04;;;;;;;4.28;3.88;;;;;19.80;100870.00;;;;2065074;28;20230;-68
2023/10/17 04:16:10;;;;;;;4.93;3.45;;;;;19.80;100812.00;;;;2063577;28;20223;-68
2023/10/17 04:17:14;;;;;;;4.05;3.63;;;;;19.80;100828.00;;;;2061620;28;20690;-68
2023/10/17 04:18:14;;;;;;;5.70;3.97;;;;;19.80;100824.00;;;;2062833;28;20784;-68
2023/10/17 04:19:18;;;;;;;3.80;3.50;;;;;19.80;100862.00;;;;2078746;28;20258;-68
2023/10/17 04:20:18;;;;;;;4.25;3.70;;;;;19.80;100870.00;;;;2063797;28;20202;-68
2023/10/17 04:22:31;;;;;;;5.18;3.80;;;;;19.80;100876.00;;;;2073164;28;20214;-68
2023/10/17 04:23:32;;;;;;;4.07;3.67;;;;;19.80;100876.00;;;;2068618;28;20205;-68
2023/10/17 04:24:35;;;;;;;4.80;3.58;;;;;19.80;100875.00;;;;2074450;28;20712;-68
2023/10/17 04:25:38;;;;;;;3.50;3.20;;;;;19.80;100820.00;;;;2067976;28;20285;-68
2023/10/17 04:26:45;;;;;;;4.82;3.95;;;;;19.80;100877.00;;;;2067678;28;20614;-68
2023/10/17 04:27:54;;;;;;;4.20;3.80;;;;;19.80;100875.00;;;;2064392;28;20222;-68
2023/10/17 04:28:55;;;;;;;3.70;3.40;;;;;19.60;100884.00;;;;2065170;28;20209;-68
2023/10/17 04:29:59;;;;;;;4.03;3.63;;;;;19.80;100888.00;;;;2072545;28;20230;-68
2023/10/17 04:30:59;;;;;;;4.20;3.80;;;;;19.80;100891.00;;;;2068477;28;20446;-68
2023/10/17 04:32:04;;;;;;;4.33;3.60;;;;;19.80;100888.00;;;;2069234;28;20270;-68
2023/10/17 04:33:12;;;;;;;4.95;4.05;;;;;19.80;100881.00;;;;2063476;28;20584;-68
2023/10/17 04:34:21;;;;;;;4.10;3.70;;;;;19.80;100885.00;;;;2070464;28;20305;-68
2023/10/17 04:35:21;;;;;;;5.57;3.75;;;;;19.80;100886.00;;;;2058122;28;20254;-68
2023/10/17 04:36:28;;;;;;;4.03;3.67;;;;;19.80;100884.00;;;;2073885;28;20213;-68
2023/10/17 04:37:32;;;;;;;3.88;3.53;;;;;19.80;100882.00;;;;2064267;28;20222;-68
2023/10/17 04:39:35;;;;;;;4.25;3.70;;;;;19.80;100878.00;;;;2072999;28;20218;-68
2023/10/17 04:40:42;;;;;;;4.37;3.73;;;;;19.80;100879.00;;;;2072692;28;20230;-68
2023/10/17 04:43:55;;;;;;;4.33;3.70;;;;;19.80;100873.00;;;;2074587;28;20254;-68
2023/10/17 04:45:05;;;;;;;4.40;3.95;;;;;19.70;100871.00;;;;2070122;28;20683;-68
2023/10/17 04:46:08;;;;;;;5.72;4.50;;;;;19.70;100873.00;;;;2071143;28;20211;-68
2023/10/17 04:48:32;;;;;;;4.90;4.43;;;;;19.70;100873.00;;;;2062411;28;20238;-68
2023/10/17 04:49:35;;;;;;;5.00;4.50;;;;;19.70;100870.00;;;;2072185;28;20226;-68
2023/10/17 04:50:44;;;;;;;4.40;3.92;;;;;19.70;100873.00;;;;2072775;28;20222;-68
2023/10/17 04:51:45;;;;;;;4.50;4.10;;;;;19.70;100874.00;;;;2070030;28;20210;-68
2023/10/17 04:52:46;;;;;;;5.17;4.67;;;;;19.70;100871.00;;;;2075679;28;20216;-68
2023/10/17 04:53:50;;;;;;;5.03;4.53;;;;;19.70;100869.00;;;;2073514;28;20205;-68
2023/10/17 04:54:53;;;;;;;4.10;3.80;;;;;19.70;100873.00;;;;2080334;28;20190;-68
2023/10/17 04:56:16;;;;;;;4.78;4.28;;;;;19.70;100818.00;;;;2076843;28;20318;-68
2023/10/17 04:57:16;;;;;;;5.05;4.55;;;;;19.70;100876.00;;;;2078830;28;20213;-68
2023/10/17 04:58:39;;;;;;;4.68;4.20;;;;;19.70;100870.00;;;;2069169;28;20229;-68
2023/10/17 05:02:18;;;;;;;4.82;4.32;;;;;19.70;100808.00;;;;2072885;28;20706;-68
2023/10/17 05:03:32;;;;;;;4.80;4.40;;;;;19.70;100864.00;;;;2069257;28;20725;-68
2023/10/17 05:04:33;;;;;;;4.93;4.45;;;;;19.70;100856.00;;;;2077795;28;20340;-68
2023/10/17 05:05:40;;;;;;;4.30;3.90;;;;;19.70;100869.00;;;;2078748;28;20597;-68
2023/10/17 05:08:11;;;;;;;5.28;4.78;;;;;19.70;100861.00;;;;2066915;28;20618;-68
2023/10/17 06:17:22;;;;;;;4.32;3.58;;;;;19.70;100893.00;;;;2066829;28;20210;-68
2023/10/17 06:18:26;;;;;;;11.45;3.53;;;;;19.70;100897.00;;;;2054091;28;20230;-67
2023/10/17 06:19:27;;;;;;;6.38;3.78;;;;;19.70;100895.00;;;;2062423;28;20756;-68
2023/10/17 06:24:45;;;;;;;4.85;3.60;;;;;19.80;100902.00;;;;2070684;28;20229;-68
2023/10/17 06:26:57;;;;;;;3.88;3.47;;;;;19.80;100906.00;;;;2069175;28;20246;-68
2023/10/17 06:30:29;;;;;;;4.22;3.83;;;;;19.70;100907.00;;;;2064087;28;20692;-68
2023/10/17 06:31:41;;;;;;;3.72;3.08;;;;;19.80;100901.00;;;;2071752;28;20745;-68
2023/10/17 06:34:18;;;;;;;4.95;2.85;;;;;19.80;100900.00;;;;2082984;28;20221;-68
2023/10/17 06:35:23;;;;;;;3.95;3.25;;;;;19.80;100902.00;;;;2075530;28;20234;-68
2023/10/17 06:36:28;;;;;;;3.92;3.50;;;;;19.80;100907.00;;;;2069529;28;20308;-68
2023/10/17 06:37:32;;;;;;;3.83;3.38;;;;;19.80;100876.00;;;;2078231;28;20862;-68
2023/10/17 06:38:45;;;;;;;4.90;3.63;;;;;19.80;100901.00;;;;2064538;28;20268;-68
2023/10/17 06:39:49;;;;;;;6.60;3.60;;;;;19.80;100906.00;;;;2066387;28;20214;-65
2023/10/17 06:40:53;;;;;;;5.22;3.85;;;;;19.80;100902.00;;;;2056581;28;20214;-65
2023/10/17 06:42:08;;;;;;;3.78;3.20;;;;;19.80;100903.00;;;;2069865;28;20218;-65
2023/10/17 06:43:27;;;;;;;3.80;3.45;;;;;19.80;100893.00;;;;2062759;28;20290;-65
2023/10/17 06:44:30;;;;;;;6.18;4.00;;;;;19.80;100899.00;;;;2069375;28;20217;-65
2023/10/17 06:45:36;;;;;;;7.75;4.22;;;;;19.70;100892.00;;;;2070030;28;20214;-65
2023/10/17 06:46:51;;;;;;;4.50;4.05;;;;;19.70;100903.00;;;;2063061;28;20718;-65
2023/10/17 06:47:57;;;;;;;3.45;3.15;;;;;19.70;100844.00;;;;2058058;28;20209;-65
2023/10/17 06:48:58;;;;;;;4.72;3.35;;;;;19.70;100898.00;;;;2071679;28;20272;-65
2023/10/17 06:50:17;;;;;;;3.57;3.10;;;;;19.70;100898.00;;;;2074156;28;20735;-65
2023/10/17 06:52:23;;;;;;;4.50;3.55;;;;;19.70;100899.00;;;;2071608;28;20213;-64
2023/10/17 06:53:27;;;;;;;4.68;3.05;;;;;19.70;100892.00;;;;2063473;28;20245;-64
2023/10/17 06:54:30;;;;;;;4.38;3.38;;;;;19.70;100896.00;;;;2065260;28;20681;-64
2023/10/17 06:55:43;;;;;;;3.45;3.00;;;;;19.70;100894.00;;;;2067792;28;20329;-64
2023/10/17 06:56:44;;;;;;;4.22;3.17;;;;;19.80;100899.00;;;;2067398;28;20286;-64
2023/10/17 06:57:44;;;;;;;5.80;3.37;;;;;19.70;100898.00;;;;2069234;28;20340;-64